createdAt,value
2022-10-30T00:00:19.442Z,99974.97
2022-10-30T00:02:49.004Z,99980.94
2022-10-30T00:05:20.231Z,99965.59
2022-10-30T00:07:49.982Z,99956.06
2022-10-30T00:10:20.000Z,99959.63
2022-10-30T00:12:50.559Z,99963.53
2022-10-30T00:15:20.377Z,99962.47
2022-10-30T00:17:49.452Z,99961.41
2022-10-30T00:20:18.794Z,99961.78
2022-10-30T00:22:47.968Z,99964.28
2022-10-30T00:25:17.319Z,99971.19
2022-10-30T00:27:46.403Z,99986.28
2022-10-30T00:30:18.953Z,99992.50
2022-10-30T00:32:48.108Z,99988.94
2022-10-30T00:35:17.424Z,100002.44
2022-10-30T00:37:46.605Z,99999.84
2022-10-30T00:40:17.803Z,99989.31
2022-10-30T00:42:47.203Z,99986.78
2022-10-30T00:45:20.416Z,99997.66
2022-10-30T00:47:56.851Z,99980.22
2022-10-30T00:50:31.077Z,99990.09
2022-10-30T00:53:04.328Z,99984.88
2022-10-30T00:55:39.824Z,99943.13
2022-10-30T00:58:15.055Z,99984.59
2022-10-30T01:00:52.155Z,99983.44
2022-10-30T01:03:23.210Z,99989.03
2022-10-30T01:05:58.211Z,99980.69
2022-10-30T01:08:27.742Z,99978.81
2022-10-30T01:10:59.945Z,99976.75
2022-10-30T01:13:29.996Z,99975.97
2022-10-30T01:16:26.528Z,99961.88
2022-10-30T01:19:05.295Z,99964.63
2022-10-30T01:21:50.065Z,99967.72
2022-10-30T01:24:36.189Z,99954.69
2022-10-30T01:27:26.452Z,99967.03
2022-10-30T01:30:09.778Z,99960.91
2022-10-30T01:32:54.947Z,99953.00
2022-10-30T01:35:33.781Z,99959.31
2022-10-30T01:38:08.404Z,99958.69
2022-10-30T01:40:38.678Z,99959.84
2022-10-30T01:43:07.868Z,99958.19
2022-10-30T01:46:01.475Z,99964.13
2022-10-30T01:48:59.601Z,99954.72
2022-10-30T01:51:44.685Z,99957.19
2022-10-30T01:54:29.606Z,99962.16
2022-10-30T01:57:08.743Z,99945.56
2022-10-30T01:59:46.566Z,99957.16
2022-10-30T02:02:15.928Z,99950.78
2022-10-30T02:04:46.990Z,99955.22
2022-10-30T02:07:16.571Z,99962.22
2022-10-30T02:09:53.186Z,99958.31
2022-10-30T02:12:24.156Z,99962.06
2022-10-30T02:14:57.632Z,99948.81
2022-10-30T02:17:28.802Z,99945.34
2022-10-30T02:19:59.401Z,99949.78
2022-10-30T02:22:30.059Z,99942.94
2022-10-30T02:24:59.326Z,99950.53
2022-10-30T02:27:28.504Z,99944.09
2022-10-30T02:29:57.544Z,99934.97
2022-10-30T02:32:26.891Z,99937.00
2022-10-30T02:34:56.060Z,99936.38
2022-10-30T02:37:25.378Z,99949.06
2022-10-30T02:39:55.969Z,99936.34
2022-10-30T02:42:25.296Z,99924.09
2022-10-30T02:44:55.990Z,99933.38
2022-10-30T02:47:25.241Z,99916.06
2022-10-30T02:49:54.385Z,99919.56
2022-10-30T02:52:23.884Z,99918.81
2022-10-30T02:54:55.136Z,99903.59
2022-10-30T02:57:24.453Z,99915.91
2022-10-30T02:59:53.581Z,99913.91
2022-10-30T03:02:22.974Z,99919.81
2022-10-30T03:04:52.683Z,99932.16
2022-10-30T03:07:21.820Z,99922.88
2022-10-30T03:09:52.383Z,99914.03
2022-10-30T03:12:23.048Z,99937.94
2022-10-30T03:14:54.818Z,99936.34
2022-10-30T03:17:24.074Z,99941.84
2022-10-30T03:19:53.149Z,99941.44
2022-10-30T03:22:23.090Z,99934.06
2022-10-30T03:24:52.242Z,99936.44
2022-10-30T03:27:23.502Z,99931.22
2022-10-30T03:29:53.280Z,99922.00
2022-10-30T03:32:22.535Z,99928.47
2022-10-30T03:34:56.382Z,99930.56
2022-10-30T03:37:25.823Z,99939.63
2022-10-30T03:39:54.953Z,99934.53
2022-10-30T03:42:25.889Z,99914.88
2022-10-30T03:44:55.007Z,99924.91
2022-10-30T03:47:24.452Z,99923.59
2022-10-30T03:49:53.638Z,99922.56
2022-10-30T03:52:23.476Z,99931.78
2022-10-30T03:54:54.130Z,99919.69
2022-10-30T03:57:25.310Z,99911.84
2022-10-30T04:00:13.951Z,99907.09
2022-10-30T04:02:47.759Z,99888.66
2022-10-30T04:05:20.101Z,99901.06
2022-10-30T04:07:50.266Z,99894.75
2022-10-30T04:10:22.912Z,99890.03
2022-10-30T04:13:03.304Z,99893.31
2022-10-30T04:15:33.986Z,99877.13
2022-10-30T04:18:04.244Z,99889.81
2022-10-30T04:20:34.507Z,99885.59
2022-10-30T04:23:06.243Z,99880.31
2022-10-30T04:25:36.238Z,99867.94
2022-10-30T04:28:07.277Z,99867.91
2022-10-30T04:30:37.012Z,99869.50
2022-10-30T04:33:08.979Z,99873.78
2022-10-30T04:35:39.128Z,99872.25
2022-10-30T04:38:15.674Z,99876.72
2022-10-30T04:40:46.315Z,99875.59
2022-10-30T04:43:17.880Z,99876.31
2022-10-30T04:45:51.184Z,99892.91
2022-10-30T04:48:20.892Z,99885.41
2022-10-30T04:50:50.314Z,99895.09
2022-10-30T04:53:25.832Z,99882.66
2022-10-30T04:56:01.863Z,99879.19
2022-10-30T04:58:34.215Z,99865.59
2022-10-30T05:01:08.082Z,99853.16
2022-10-30T05:03:38.930Z,99866.84
2022-10-30T05:06:22.105Z,99864.50
2022-10-30T05:08:51.980Z,99847.91
2022-10-30T05:11:31.893Z,99847.88
2022-10-30T05:14:02.501Z,99846.53
2022-10-30T05:16:31.709Z,99857.81
2022-10-30T05:19:02.820Z,99861.97
2022-10-30T05:21:31.979Z,99883.16
2022-10-30T05:24:01.307Z,99871.69
2022-10-30T05:26:36.415Z,99882.22
2022-10-30T05:29:07.103Z,99837.00
2022-10-30T05:31:36.373Z,99873.09
2022-10-30T05:34:23.766Z,99869.03
2022-10-30T05:36:55.305Z,99868.78
2022-10-30T05:39:24.610Z,99858.09
2022-10-30T05:41:54.697Z,99836.47
2022-10-30T05:44:47.431Z,99847.66
2022-10-30T05:47:16.831Z,99858.44
2022-10-30T05:49:49.333Z,99858.38
2022-10-30T05:52:22.191Z,99858.72
2022-10-30T05:54:53.534Z,99863.06
2022-10-30T05:57:43.586Z,99854.72
2022-10-30T06:00:16.763Z,99854.19
2022-10-30T06:02:45.897Z,99878.41
2022-10-30T06:05:17.681Z,99875.44
2022-10-30T06:07:46.972Z,99862.16
2022-10-30T06:10:16.489Z,99856.16
2022-10-30T06:13:08.257Z,99853.41
2022-10-30T06:16:05.060Z,99856.47
2022-10-30T06:19:17.322Z,99859.16
2022-10-30T06:21:49.065Z,99847.75
2022-10-30T06:24:35.479Z,99845.78
2022-10-30T06:27:25.207Z,99841.41
2022-10-30T06:29:55.995Z,99853.81
2022-10-30T06:32:26.628Z,99851.50
2022-10-30T06:34:56.436Z,99845.81
2022-10-30T06:37:26.941Z,99820.47
2022-10-30T06:39:56.165Z,99848.94
2022-10-30T06:42:50.499Z,99841.06
2022-10-30T06:45:49.154Z,99836.72
2022-10-30T06:48:19.744Z,99837.88
2022-10-30T06:50:56.409Z,99831.13
2022-10-30T06:53:27.399Z,99843.00
2022-10-30T06:56:03.812Z,99842.09
2022-10-30T06:58:53.234Z,99831.84
2022-10-30T07:01:55.643Z,99837.84
2022-10-30T07:04:30.518Z,99843.56
2022-10-30T07:07:01.306Z,99843.56
2022-10-30T07:09:31.498Z,99849.31
2022-10-30T07:12:06.644Z,99854.78
2022-10-30T07:14:43.424Z,99853.56
2022-10-30T07:17:20.075Z,99858.25
2022-10-30T07:19:57.179Z,99846.19
2022-10-30T07:22:26.961Z,99863.19
2022-10-30T07:24:57.056Z,99852.91
2022-10-30T07:27:47.597Z,99848.00
2022-10-30T07:30:30.630Z,99846.63
2022-10-30T07:33:20.109Z,99845.91
2022-10-30T07:36:03.955Z,99848.41
2022-10-30T07:38:46.409Z,99849.31
2022-10-30T07:41:27.067Z,99851.00
2022-10-30T07:44:16.075Z,99858.09
2022-10-30T07:47:11.463Z,99844.22
2022-10-30T07:49:59.197Z,99845.72
2022-10-30T07:52:33.674Z,99839.72
2022-10-30T07:55:03.351Z,99838.22
2022-10-30T07:57:55.937Z,99844.00
2022-10-30T08:01:03.772Z,99851.16
2022-10-30T08:03:35.632Z,99844.53
2022-10-30T08:06:13.658Z,99841.06
2022-10-30T08:08:44.254Z,99856.50
2022-10-30T08:11:22.131Z,99868.75
2022-10-30T08:13:51.968Z,99864.84
2022-10-30T08:16:21.195Z,99869.28
2022-10-30T08:18:52.567Z,99868.03
2022-10-30T08:21:25.441Z,99871.69
2022-10-30T08:24:02.615Z,99859.97
2022-10-30T08:26:35.484Z,99864.50
2022-10-30T08:29:05.317Z,99859.72
2022-10-30T08:31:34.653Z,99867.19
2022-10-30T08:34:04.387Z,99847.41
2022-10-30T08:36:42.732Z,99866.19
2022-10-30T08:39:15.977Z,99873.19
2022-10-30T08:41:52.295Z,99864.00
2022-10-30T08:44:22.724Z,99867.78
2022-10-30T08:47:10.585Z,99867.72
2022-10-30T08:49:41.187Z,99867.09
2022-10-30T08:52:11.806Z,99868.69
2022-10-30T08:54:43.321Z,99870.75
2022-10-30T08:57:12.461Z,99873.81
2022-10-30T08:59:57.550Z,99881.19
2022-10-30T09:02:46.682Z,99880.28
2022-10-30T09:05:34.365Z,99880.66
2022-10-30T09:08:21.775Z,99886.59
2022-10-30T09:11:09.546Z,99883.78
2022-10-30T09:13:39.390Z,99883.28
2022-10-30T09:16:10.946Z,99885.97
2022-10-30T09:18:40.961Z,99878.28
2022-10-30T09:21:10.226Z,99885.66
2022-10-30T09:23:48.272Z,99877.75
2022-10-30T09:26:36.198Z,99878.06
2022-10-30T09:29:19.946Z,99879.81
2022-10-30T09:32:10.597Z,99871.53
2022-10-30T09:34:50.958Z,99873.94
2022-10-30T09:37:28.851Z,99883.47
2022-10-30T09:40:01.911Z,99877.16
2022-10-30T09:42:47.002Z,99877.91
2022-10-30T09:46:16.489Z,99873.25
2022-10-30T09:49:17.165Z,99867.44
2022-10-30T09:52:13.280Z,99872.75
2022-10-30T09:54:57.828Z,99870.97
2022-10-30T09:57:37.611Z,99870.94
2022-10-30T10:00:12.326Z,99865.31
2022-10-30T10:03:06.691Z,99853.28
2022-10-30T10:05:54.038Z,99872.88
2022-10-30T10:08:56.397Z,99884.38
2022-10-30T10:11:41.195Z,99883.84
2022-10-30T10:14:16.278Z,99893.56
2022-10-30T10:16:50.096Z,99896.66
2022-10-30T10:19:23.342Z,99884.97
2022-10-30T10:22:00.499Z,99896.66
2022-10-30T10:24:35.013Z,99887.28
2022-10-30T10:27:16.356Z,99887.75
2022-10-30T10:30:02.895Z,99876.59
2022-10-30T10:33:01.159Z,99884.13
2022-10-30T10:35:58.751Z,99877.69
2022-10-30T10:38:53.378Z,99881.41
2022-10-30T10:41:40.950Z,99858.34
2022-10-30T10:44:35.726Z,99864.53
2022-10-30T10:47:35.384Z,99876.09
2022-10-30T10:50:20.052Z,99873.16
2022-10-30T10:52:55.878Z,99872.97
2022-10-30T10:55:33.257Z,99867.66
2022-10-30T10:58:09.060Z,99884.56
2022-10-30T11:00:39.233Z,99888.38
2022-10-30T11:05:52.718Z,99887.13
2022-10-30T11:08:31.758Z,99883.72
2022-10-30T11:11:04.594Z,99880.34
2022-10-30T11:13:38.808Z,99885.91
2022-10-30T11:16:25.976Z,99895.25
2022-10-30T11:19:01.234Z,99891.66
2022-10-30T11:21:36.499Z,99888.13
2022-10-30T11:24:26.452Z,99903.31
2022-10-30T11:26:59.290Z,99886.59
2022-10-30T11:29:31.089Z,99886.19
2022-10-30T11:32:05.888Z,99910.47
2022-10-30T11:34:37.946Z,99909.25
2022-10-30T11:37:07.404Z,99902.31
2022-10-30T11:39:37.133Z,99909.41
2022-10-30T11:42:14.624Z,99907.28
2022-10-30T11:44:47.436Z,99910.88
2022-10-30T11:47:21.810Z,99906.06
2022-10-30T11:49:55.224Z,99908.38
2022-10-30T11:52:27.519Z,99906.72
2022-10-30T11:55:00.874Z,99890.47
2022-10-30T11:57:37.896Z,99900.66
2022-10-30T12:00:18.236Z,99892.72
2022-10-30T12:02:51.469Z,99896.66
2022-10-30T12:05:38.620Z,99888.81
2022-10-30T12:08:23.704Z,99903.13
2022-10-30T12:11:03.903Z,99909.16
2022-10-30T12:13:40.684Z,99915.72
2022-10-30T12:16:17.117Z,99917.63
2022-10-30T12:19:00.734Z,99902.19
2022-10-30T12:21:33.569Z,99920.38
2022-10-30T12:24:07.096Z,99883.06
2022-10-30T12:26:37.593Z,99919.91
2022-10-30T12:29:16.267Z,99914.63
2022-10-30T12:31:54.891Z,99908.28
2022-10-30T12:34:39.627Z,99920.84
2022-10-30T12:37:18.376Z,99913.59
2022-10-30T12:39:59.299Z,99926.28
2022-10-30T12:42:29.115Z,99921.09
2022-10-30T12:45:14.351Z,99917.38
2022-10-30T12:47:48.215Z,99915.28
2022-10-30T12:50:24.483Z,99907.09
2022-10-30T12:53:02.102Z,99906.41
2022-10-30T12:55:37.731Z,99919.50
2022-10-30T12:58:19.943Z,99911.31
2022-10-30T13:00:59.898Z,99908.25
2022-10-30T13:03:36.281Z,99908.38
2022-10-30T13:06:16.991Z,99924.22
2022-10-30T13:08:59.432Z,99906.75
2022-10-30T13:11:43.219Z,99912.34
2022-10-30T13:14:17.329Z,99922.25
2022-10-30T13:16:47.853Z,99913.13
2022-10-30T13:19:17.081Z,99891.31
2022-10-30T13:21:56.716Z,99900.03
2022-10-30T13:24:38.247Z,99897.25
2022-10-30T13:27:15.962Z,99888.09
2022-10-30T13:29:54.947Z,99899.22
2022-10-30T13:32:45.826Z,99908.31
2022-10-30T13:35:31.707Z,99918.66
2022-10-30T13:38:18.299Z,99917.03
2022-10-30T13:40:53.735Z,99919.47
2022-10-30T13:43:37.474Z,99920.22
2022-10-30T13:46:47.456Z,99922.56
2022-10-30T13:49:36.681Z,99919.03
2022-10-30T13:52:14.049Z,99914.69
2022-10-30T13:54:50.510Z,99942.34
2022-10-30T13:57:28.296Z,99948.25
2022-10-30T14:00:06.279Z,99937.53
2022-10-30T14:03:15.542Z,99943.66
2022-10-30T14:05:52.583Z,99951.56
2022-10-30T14:08:34.257Z,99961.06
2022-10-30T14:11:06.136Z,99962.19
2022-10-30T14:13:52.380Z,99966.28
2022-10-30T14:16:42.425Z,99959.44
2022-10-30T14:19:12.533Z,99946.78
2022-10-30T14:21:53.293Z,99970.59
2022-10-30T14:27:11.370Z,99960.41
2022-10-30T14:29:58.815Z,99970.84
2022-10-30T14:32:53.268Z,99980.88
2022-10-30T14:35:41.661Z,99973.28
2022-10-30T14:38:27.995Z,99982.56
2022-10-30T14:41:15.364Z,99990.06
2022-10-30T14:44:04.553Z,99986.44
2022-10-30T14:46:43.307Z,99992.69
2022-10-30T14:49:36.146Z,100001.31
2022-10-30T14:52:20.354Z,99998.16
2022-10-30T14:55:01.405Z,99998.94
2022-10-30T14:57:52.606Z,99997.66
2022-10-30T15:00:42.550Z,100008.25
2022-10-30T15:03:44.596Z,100010.13
2022-10-30T15:06:25.694Z,100001.38
2022-10-30T15:09:19.011Z,100024.69
2022-10-30T15:12:20.362Z,100041.38
2022-10-30T15:14:56.370Z,100032.75
2022-10-30T15:17:32.045Z,100034.44
2022-10-30T15:20:06.590Z,100033.69
2022-10-30T15:22:36.422Z,100043.66
2022-10-30T15:25:07.649Z,100040.81
2022-10-30T15:27:44.349Z,100049.22
2022-10-30T15:30:18.284Z,100053.59
2022-10-30T15:32:47.720Z,100049.66
2022-10-30T15:35:20.516Z,100074.91
2022-10-30T15:38:04.730Z,100057.81
2022-10-30T15:40:36.658Z,100050.25
2022-10-30T15:43:12.643Z,100066.00
2022-10-30T15:45:43.968Z,100065.94
2022-10-30T15:48:23.932Z,100060.97
2022-10-30T15:51:02.485Z,100068.09
2022-10-30T15:53:40.955Z,100058.06
2022-10-30T15:56:20.090Z,100071.28
2022-10-30T15:58:55.587Z,100081.47
2022-10-30T16:01:31.697Z,100076.56
2022-10-30T16:04:01.898Z,100080.75
2022-10-30T16:06:33.104Z,100086.91
2022-10-30T16:09:06.015Z,100086.28
2022-10-30T16:11:35.318Z,100096.81
2022-10-30T16:14:12.237Z,100086.28
2022-10-30T16:16:41.416Z,100082.44
2022-10-30T16:19:22.694Z,100091.41
2022-10-30T16:21:55.716Z,100087.84
2022-10-30T16:24:32.619Z,100092.00
2022-10-30T16:27:07.992Z,100093.00
2022-10-30T16:29:39.037Z,100095.34
2022-10-30T16:32:14.899Z,100101.66
2022-10-30T16:34:45.302Z,100088.34
2022-10-30T16:37:20.669Z,100109.19
2022-10-30T16:39:51.739Z,100109.03
2022-10-30T16:42:22.952Z,100113.69
2022-10-30T16:45:13.582Z,100122.50
2022-10-30T16:47:47.234Z,100108.41
2022-10-30T16:50:18.088Z,100129.84
2022-10-30T16:52:47.464Z,100134.06
2022-10-30T16:55:21.781Z,100144.63
2022-10-30T16:57:56.887Z,100134.09
2022-10-30T17:00:34.061Z,100138.72
2022-10-30T17:03:11.648Z,100148.25
2022-10-30T17:05:43.749Z,100136.72
2022-10-30T17:08:46.549Z,100152.47
2022-10-30T17:11:20.924Z,100148.94
2022-10-30T17:14:00.215Z,100159.97
2022-10-30T17:16:33.468Z,100157.91
2022-10-30T17:19:37.133Z,100175.75
2022-10-30T17:22:12.058Z,100179.56
2022-10-30T17:24:41.641Z,100173.81
2022-10-30T17:27:35.999Z,100181.63
2022-10-30T17:30:21.139Z,100170.88
2022-10-30T17:32:55.359Z,100182.50
2022-10-30T17:35:24.562Z,100185.53
2022-10-30T17:37:55.356Z,100168.56
2022-10-30T17:40:26.179Z,100194.69
2022-10-30T17:42:55.296Z,100184.66
2022-10-30T17:45:24.397Z,100203.47
2022-10-30T17:47:55.052Z,100194.56
2022-10-30T17:50:24.357Z,100205.81
2022-10-30T17:52:53.488Z,100212.91
2022-10-30T17:55:28.371Z,100201.78
2022-10-30T17:57:57.622Z,100222.91
2022-10-30T18:00:26.790Z,100221.59
2022-10-30T18:02:57.894Z,100220.50
2022-10-30T18:05:30.644Z,100229.69
2022-10-30T18:07:59.818Z,100225.91
2022-10-30T18:10:29.348Z,100222.00
2022-10-30T18:12:59.244Z,100241.19
2022-10-30T18:15:32.618Z,100243.56
2022-10-30T18:18:03.676Z,100249.97
2022-10-30T18:20:33.526Z,100227.13
2022-10-30T18:23:03.271Z,100234.88
2022-10-30T18:25:36.701Z,100240.09
2022-10-30T18:28:06.168Z,100232.88
2022-10-30T18:30:35.434Z,100238.16
2022-10-30T18:33:06.227Z,100240.09
2022-10-30T18:35:37.689Z,100240.53
2022-10-30T18:38:08.342Z,100245.59
2022-10-30T18:40:37.734Z,100241.84
2022-10-30T18:43:06.966Z,100249.75
2022-10-30T18:45:39.812Z,100254.66
2022-10-30T18:48:11.295Z,100265.91
2022-10-30T18:50:40.823Z,100271.28
2022-10-30T18:53:17.993Z,100271.19
2022-10-30T18:58:17.539Z,100271.66
2022-10-30T19:01:10.693Z,100279.78
2022-10-30T19:03:37.373Z,100266.97
2022-10-30T19:06:10.694Z,100272.66
2022-10-30T19:08:40.167Z,100282.78
2022-10-30T19:11:13.208Z,100286.00
2022-10-30T19:13:42.493Z,100280.28
2022-10-30T19:16:15.269Z,100276.63
2022-10-30T19:18:47.551Z,100293.47
2022-10-30T19:21:18.150Z,100294.84
2022-10-30T19:23:48.096Z,100277.75
2022-10-30T19:26:17.848Z,100287.66
2022-10-30T19:28:47.619Z,100293.38
2022-10-30T19:31:18.974Z,100294.19
2022-10-30T19:33:53.035Z,100289.84
2022-10-30T19:36:34.009Z,100305.09
2022-10-30T19:39:08.886Z,100295.34
2022-10-30T19:41:40.099Z,100297.97
2022-10-30T19:44:09.664Z,100299.38
2022-10-30T19:46:39.149Z,100301.06
2022-10-30T19:49:18.766Z,100304.19
2022-10-30T19:51:48.369Z,100295.13
2022-10-30T19:54:17.528Z,100292.06
2022-10-30T19:56:46.712Z,100299.03
2022-10-30T19:59:16.661Z,100303.28
2022-10-30T20:01:46.134Z,100302.13
2022-10-30T20:04:17.030Z,100292.75
2022-10-30T20:06:46.472Z,100306.84
2022-10-30T20:09:15.917Z,100298.38
2022-10-30T20:11:45.247Z,100302.38
2022-10-30T20:14:14.496Z,100297.22
2022-10-30T20:16:43.782Z,100309.50
2022-10-30T20:19:29.734Z,100307.88
2022-10-30T20:21:59.333Z,100308.00
2022-10-30T20:24:28.580Z,100309.59
2022-10-30T20:26:58.841Z,100309.97
2022-10-30T20:29:28.484Z,100306.84
2022-10-30T20:31:57.675Z,100310.06
2022-10-30T20:34:28.288Z,100312.34
2022-10-30T20:36:57.438Z,100310.75
2022-10-30T20:39:26.601Z,100313.84
2022-10-30T20:41:56.123Z,100304.44
2022-10-30T20:44:25.307Z,100309.25
2022-10-30T20:46:54.507Z,100301.47
2022-10-30T20:49:23.774Z,100301.13
2022-10-30T20:51:54.317Z,100301.03
2022-10-30T20:54:23.434Z,100304.22
2022-10-30T20:56:52.593Z,100294.16
2022-10-30T20:59:21.872Z,100275.84
2022-10-30T21:01:51.156Z,100277.44
2022-10-30T21:04:20.356Z,100283.47
2022-10-30T21:06:49.506Z,100262.09
2022-10-30T21:09:20.179Z,100274.47
2022-10-30T21:11:49.579Z,100271.22
2022-10-30T21:14:18.988Z,100279.13
2022-10-30T21:16:49.905Z,100259.44
2022-10-30T21:19:19.235Z,100270.78
2022-10-30T21:21:48.570Z,100271.94
2022-10-30T21:24:19.585Z,100267.22
2022-10-30T21:26:48.923Z,100266.97
2022-10-30T21:29:18.089Z,100278.44
2022-10-30T21:31:47.546Z,100266.66
2022-10-30T21:34:17.905Z,100276.94
2022-10-30T21:36:47.341Z,100266.66
2022-10-30T21:39:16.521Z,100269.59
2022-10-30T21:41:47.200Z,100264.91
2022-10-30T21:44:16.650Z,100262.03
2022-10-30T21:46:45.878Z,100272.34
2022-10-30T21:49:16.732Z,100266.16
2022-10-30T21:51:48.078Z,100260.53
2022-10-30T21:54:18.119Z,100262.97
2022-10-30T21:56:50.107Z,100255.06
2022-10-30T21:59:19.503Z,100262.16
2022-10-30T22:01:48.877Z,100277.97
2022-10-30T22:04:18.747Z,100265.00
2022-10-30T22:06:48.105Z,100263.63
2022-10-30T22:09:19.377Z,100264.28
2022-10-30T22:11:50.152Z,100249.16
2022-10-30T22:14:19.392Z,100247.31
2022-10-30T22:16:50.205Z,100252.81
2022-10-30T22:19:19.838Z,100247.75
2022-10-30T22:21:49.122Z,100233.00
2022-10-30T22:24:18.757Z,100248.56
2022-10-30T22:26:49.722Z,100257.59
2022-10-30T22:29:19.012Z,100240.53
2022-10-30T22:31:48.376Z,100251.09
2022-10-30T22:34:17.588Z,100255.44
2022-10-30T22:36:47.347Z,100256.69
2022-10-30T22:39:16.613Z,100251.66
2022-10-30T22:41:46.041Z,100258.06
2022-10-30T22:44:19.074Z,100250.25
2022-10-30T22:46:48.514Z,100254.25
2022-10-30T22:49:17.825Z,100261.44
2022-10-30T22:51:47.174Z,100264.69
2022-10-30T22:54:16.322Z,100265.00
2022-10-30T22:56:45.634Z,100272.22
2022-10-30T22:59:16.550Z,100259.91
2022-10-30T23:01:45.732Z,100256.34
2022-10-30T23:04:16.186Z,100215.03
2022-10-30T23:06:45.763Z,100245.53
2022-10-30T23:09:22.445Z,100242.97
2022-10-30T23:11:51.911Z,100241.38
2022-10-30T23:14:22.543Z,100229.47
2022-10-30T23:16:51.631Z,100239.31
2022-10-30T23:19:20.789Z,100236.91
2022-10-30T23:21:50.141Z,100206.97
2022-10-30T23:24:19.229Z,100228.22
2022-10-30T23:26:48.382Z,100223.75
2022-10-30T23:29:17.556Z,100221.81
2022-10-30T23:31:48.673Z,100227.97
2022-10-30T23:34:19.857Z,100226.44
2022-10-30T23:36:49.032Z,100224.41
2022-10-30T23:39:19.536Z,100224.41
2022-10-30T23:41:48.731Z,100230.72
2022-10-30T23:44:18.394Z,100213.66
2022-10-30T23:46:49.058Z,100217.56
2022-10-30T23:49:18.341Z,100221.00
2022-10-30T23:51:47.523Z,100222.69
2022-10-30T23:54:16.687Z,100224.72
2022-10-30T23:56:45.815Z,100205.81
2022-10-30T23:59:14.969Z,100220.31
